Time;durP1;ratioP1;P1;durP2;ratioP2;P2;SDS_P1;SDS_P2;PMS_P1;PMS_P2;Temp;Humidity;BMP_temperature;BMP_pressure;BME280_temperature;BME280_humidity;BME280_pressure;Samples;Min_cycle;Max_cycle;Signal;HPM_P1;HPM_P2
2022/11/23 00:01:46;;;;;;;;;;;7.10;99.90;;;;;;5091818;28;1108;-63
2022/11/23 00:04:12;;;;;;;;;;;7.00;99.90;;;;;;5090149;28;1123;-63
2022/11/23 00:06:38;;;;;;;;;;;7.10;99.90;;;;;;5091328;28;1103;-63
2022/11/23 00:09:04;;;;;;;;;;;7.10;99.90;;;;;;5073525;28;1160;-63
2022/11/23 00:11:32;;;;;;;;;;;7.10;99.90;;;;;;5090729;28;1131;-63
2022/11/23 00:13:58;;;;;;;;;;;7.10;99.90;;;;;;5091098;28;1155;-63
2022/11/23 00:16:24;;;;;;;;;;;7.10;99.90;;;;;;5091556;28;1096;-63
2022/11/23 00:18:52;;;;;;;;;;;7.10;99.90;;;;;;5090233;28;1906;-62
2022/11/23 00:21:18;;;;;;;;;;;7.20;99.90;;;;;;5066051;28;1238;-62
2022/11/23 00:23:44;;;;;;;;;;;7.20;99.90;;;;;;5088365;28;1159;-63
2022/11/23 00:26:10;;;;;;;;;;;7.10;99.90;;;;;;5093643;28;1120;-63
2022/11/23 00:28:38;;;;;;;;;;;7.20;99.90;;;;;;5092278;28;1206;-62
2022/11/23 00:31:05;;;;;;;;;;;7.20;99.90;;;;;;5090446;28;1112;-63
2022/11/23 00:33:30;;;;;;;;;;;7.20;99.90;;;;;;5084962;28;1171;-63
2022/11/23 00:36:03;;;;;;;;;;;7.70;99.90;;;;;;5090786;28;996;-63
2022/11/23 00:38:29;;;;;;;;;;;7.20;99.90;;;;;;5090424;28;1972;-63
2022/11/23 00:40:56;;;;;;;;;;;7.20;99.90;;;;;;5090129;28;1159;-62
2022/11/23 00:43:22;;;;;;;;;;;7.30;99.90;;;;;;5090494;28;1093;-62
2022/11/23 00:45:49;;;;;;;;;;;7.20;99.90;;;;;;5090014;28;969;-63
2022/11/23 00:48:16;;;;;;;;;;;7.30;99.90;;;;;;5072823;28;1113;-63
2022/11/23 00:50:41;;;;;;;;;;;7.30;99.90;;;;;;5084511;28;1413;-63
2022/11/23 00:53:07;;;;;;;;;;;7.30;99.90;;;;;;5089524;28;1401;-63
2022/11/23 00:55:32;;;;;;;;;;;7.30;99.90;;;;;;5072154;28;1097;-62
2022/11/23 00:57:58;;;;;;;;;;;7.30;99.90;;;;;;5082673;28;2001;-62
2022/11/23 01:00:24;;;;;;;;;;;7.30;99.90;;;;;;5071445;28;1156;-62
2022/11/23 01:02:49;;;;;;;;;;;7.30;99.90;;;;;;5090344;28;1112;-62
2022/11/23 01:05:15;;;;;;;;;;;7.10;99.90;;;;;;5090199;28;1147;-63
2022/11/23 01:07:41;;;;;;;;;;;7.30;99.90;;;;;;5071445;28;1209;-63
2022/11/23 01:10:07;;;;;;;;;;;7.30;99.90;;;;;;5072307;28;1093;-62
2022/11/23 01:12:32;;;;;;;;;;;7.30;99.90;;;;;;5090198;28;1128;-62
2022/11/23 01:14:58;;;;;;;;;;;7.30;99.90;;;;;;5071139;28;1164;-63
2022/11/23 01:17:24;;;;;;;;;;;7.30;99.90;;;;;;5080386;28;1941;-62
2022/11/23 01:19:50;;;;;;;;;;;7.30;99.90;;;;;;5089480;28;1092;-62
2022/11/23 01:22:16;;;;;;;;;;;7.40;99.90;;;;;;5062768;28;1371;-63
2022/11/23 01:24:41;;;;;;;;;;;7.40;99.90;;;;;;5089840;28;1112;-62
2022/11/23 01:27:08;;;;;;;;;;;7.40;99.90;;;;;;5092955;28;1217;-63
2022/11/23 01:29:33;;;;;;;;;;;7.40;99.90;;;;;;5071822;28;1008;-63
2022/11/23 01:32:00;;;;;;;;;;;7.50;99.90;;;;;;5089855;28;1164;-63
2022/11/23 01:34:26;;;;;;;;;;;7.50;99.90;;;;;;5088606;28;1116;-63
2022/11/23 01:36:51;;;;;;;;;;;7.60;99.90;;;;;;5055068;28;1122;-63
2022/11/23 01:39:17;;;;;;;;;;;7.50;99.90;;;;;;5089731;28;1914;-62
2022/11/23 01:41:43;;;;;;;;;;;7.70;99.90;;;;;;5088814;28;1191;-63
2022/11/23 01:44:21;;;;;;;;;;;7.70;99.90;;;;;;5089096;28;1162;-62
2022/11/23 01:46:52;;;;;;;;;;;7.70;99.90;;;;;;5071719;28;1105;-63
2022/11/23 01:49:17;;;;;;;;;;;7.70;99.90;;;;;;5088535;28;1206;-63
2022/11/23 01:51:45;;;;;;;;;;;7.70;99.90;;;;;;5070910;28;1145;-62
2022/11/23 01:54:13;;;;;;;;;;;7.70;99.90;;;;;;5089471;28;1065;-63
2022/11/23 01:56:43;;;;;;;;;;;7.70;99.90;;;;;;5082830;28;1161;-62
2022/11/23 01:59:11;;;;;;;;;;;7.70;99.90;;;;;;5071444;28;1979;-63
2022/11/23 02:01:36;;;;;;;;;;;7.70;99.90;;;;;;5088576;28;1138;-62
2022/11/23 02:04:02;;;;;;;;;;;7.70;99.90;;;;;;5088204;28;1199;-62
2022/11/23 02:06:28;;;;;;;;;;;7.70;99.90;;;;;;5089510;28;1104;-62
2022/11/23 02:08:54;;;;;;;;;;;7.70;99.90;;;;;;5089048;28;1101;-63
2022/11/23 02:11:20;;;;;;;;;;;7.70;99.90;;;;;;5070021;28;1117;-62
2022/11/23 02:13:48;;;;;;;;;;;7.70;99.90;;;;;;5089384;28;1112;-62
2022/11/23 02:16:15;;;;;;;;;;;7.70;99.90;;;;;;5088734;28;1128;-62
2022/11/23 02:18:42;;;;;;;;;;;7.80;99.90;;;;;;5088386;28;1971;-62
2022/11/23 02:21:09;;;;;;;;;;;7.80;99.90;;;;;;5065845;28;1366;-62
2022/11/23 02:23:42;;;;;;;;;;;7.70;99.90;;;;;;5067317;28;1102;-62
2022/11/23 02:26:12;;;;;;;;;;;7.80;99.90;;;;;;5073530;28;1164;-62
2022/11/23 02:28:42;;;;;;;;;;;7.80;99.90;;;;;;5071848;28;1162;-62
2022/11/23 02:31:08;;;;;;;;;;;7.80;99.90;;;;;;5070638;28;1097;-62
2022/11/23 02:33:36;;;;;;;;;;;7.80;99.90;;;;;;5088850;28;1143;-62
2022/11/23 02:36:22;;;;;;;;;;;7.50;99.90;;;;;;5089061;28;1124;-62
2022/11/23 02:38:47;;;;;;;;;;;7.80;99.90;;;;;;5081231;28;1910;-62
2022/11/23 02:41:13;;;;;;;;;;;7.90;99.90;;;;;;5070525;28;1123;-62
2022/11/23 02:43:39;;;;;;;;;;;7.90;99.90;;;;;;5053952;28;1580;-62
2022/11/23 02:46:06;;;;;;;;;;;7.90;99.90;;;;;;5087835;28;1218;-62
2022/11/23 02:48:31;;;;;;;;;;;7.80;99.90;;;;;;5070603;28;1164;-62
2022/11/23 02:50:57;;;;;;;;;;;8.10;99.90;;;;;;5070464;28;1221;-62
2022/11/23 02:53:23;;;;;;;;;;;7.80;99.90;;;;;;5087772;28;1420;-62
2022/11/23 02:55:52;;;;;;;;;;;7.90;99.90;;;;;;5085056;28;1072;-63
2022/11/23 02:58:18;;;;;;;;;;;7.90;99.90;;;;;;5088670;28;1906;-62
2022/11/23 03:00:45;;;;;;;;;;;7.90;99.90;;;;;;5070131;28;1192;-62
2022/11/23 03:03:10;;;;;;;;;;;7.90;99.90;;;;;;5087914;28;1110;-62
2022/11/23 03:05:38;;;;;;;;;;;7.90;99.90;;;;;;5053209;28;1169;-62
2022/11/23 03:08:05;;;;;;;;;;;8.00;99.90;;;;;;5088675;28;1049;-62
2022/11/23 03:10:31;;;;;;;;;;;7.90;99.90;;;;;;5070222;28;1235;-62
2022/11/23 03:12:57;;;;;;;;;;;7.80;99.90;;;;;;5054015;28;1131;-62
2022/11/23 03:15:24;;;;;;;;;;;8.00;99.90;;;;;;5074276;28;1109;-63
2022/11/23 03:17:51;;;;;;;;;;;7.90;99.90;;;;;;5073922;28;1907;-62
2022/11/23 03:20:18;;;;;;;;;;;8.00;99.90;;;;;;5076285;28;1153;-62
2022/11/23 03:22:47;;;;;;;;;;;7.90;99.90;;;;;;5065601;28;1633;-63
2022/11/23 03:25:15;;;;;;;;;;;7.90;99.90;;;;;;5074077;28;1185;-63
2022/11/23 03:27:44;;;;;;;;;;;7.90;99.90;;;;;;5077601;28;1047;-62
2022/11/23 03:30:10;;;;;;;;;;;7.90;99.90;;;;;;5085725;28;1171;-63
2022/11/23 03:32:36;;;;;;;;;;;7.90;99.90;;;;;;5091910;28;1186;-63
2022/11/23 03:35:03;;;;;;;;;;;7.80;99.90;;;;;;5091529;28;1140;-62
2022/11/23 03:37:29;;;;;;;;;;;7.80;99.90;;;;;;5074010;28;1902;-63
2022/11/23 03:39:55;;;;;;;;;;;7.80;99.90;;;;;;5073743;28;1117;-63
2022/11/23 03:42:21;;;;;;;;;;;7.80;99.90;;;;;;5091451;28;1167;-62
2022/11/23 03:44:47;;;;;;;;;;;7.90;99.90;;;;;;5073794;28;1210;-63
2022/11/23 03:47:14;;;;;;;;;;;7.80;99.90;;;;;;5080967;28;1166;-62
2022/11/23 03:49:40;;;;;;;;;;;7.90;99.90;;;;;;5090960;28;1128;-62
2022/11/23 03:52:07;;;;;;;;;;;7.80;99.90;;;;;;5073456;28;1245;-63
2022/11/23 03:54:33;;;;;;;;;;;7.90;99.90;;;;;;5073332;28;1137;-62
2022/11/23 03:56:59;;;;;;;;;;;7.90;99.90;;;;;;5090695;28;1185;-63
2022/11/23 03:59:24;;;;;;;;;;;7.90;99.90;;;;;;5091658;28;1982;-63
2022/11/23 04:01:51;;;;;;;;;;;7.90;99.90;;;;;;5072708;28;1047;-63
2022/11/23 04:04:21;;;;;;;;;;;7.70;99.90;;;;;;5073463;28;1105;-63
2022/11/23 04:07:06;;;;;;;;;;;7.90;99.90;;;;;;5057033;28;1110;-62
2022/11/23 04:09:37;;;;;;;;;;;7.90;99.90;;;;;;5072672;28;1132;-62
2022/11/23 04:12:02;;;;;;;;;;;7.90;99.90;;;;;;5091199;28;1163;-62
2022/11/23 04:14:28;;;;;;;;;;;7.90;99.90;;;;;;5063629;28;1206;-62
2022/11/23 04:16:54;;;;;;;;;;;8.00;99.90;;;;;;5072434;28;1136;-63
2022/11/23 04:19:19;;;;;;;;;;;8.10;99.90;;;;;;5069894;28;1906;-63
2022/11/23 04:21:46;;;;;;;;;;;7.90;99.90;;;;;;5063816;28;1324;-63
2022/11/23 04:24:12;;;;;;;;;;;7.90;99.90;;;;;;5055034;28;1173;-62
2022/11/23 04:26:45;;;;;;;;;;;7.90;99.90;;;;;;5077061;28;1098;-62
2022/11/23 04:29:11;;;;;;;;;;;7.90;99.90;;;;;;5091356;28;1171;-63
2022/11/23 04:31:41;;;;;;;;;;;7.80;99.90;;;;;;5077662;28;1089;-63
2022/11/23 04:34:12;;;;;;;;;;;7.80;99.90;;;;;;5076637;28;1101;-62
2022/11/23 04:36:38;;;;;;;;;;;7.80;99.90;;;;;;5093269;28;1124;-62
2022/11/23 04:39:05;;;;;;;;;;;7.70;99.90;;;;;;5073837;28;1921;-62
2022/11/23 04:41:39;;;;;;;;;;;7.70;99.90;;;;;;5055959;28;1197;-62
2022/11/23 04:44:05;;;;;;;;;;;7.70;99.90;;;;;;5071789;28;1168;-62
2022/11/23 04:46:34;;;;;;;;;;;7.70;99.90;;;;;;5055482;28;1142;-62
2022/11/23 04:49:05;;;;;;;;;;;7.60;99.90;;;;;;5082120;28;1321;-62
2022/11/23 04:51:31;;;;;;;;;;;7.60;99.90;;;;;;5076752;28;1416;-62
2022/11/23 04:53:58;;;;;;;;;;;7.60;99.90;;;;;;5055472;28;1153;-62
2022/11/23 04:56:26;;;;;;;;;;;7.70;99.90;;;;;;5056083;28;1229;-63
2022/11/23 04:58:52;;;;;;;;;;;7.60;99.90;;;;;;5089486;28;1967;-62
2022/11/23 05:01:18;;;;;;;;;;;7.70;99.90;;;;;;5090438;28;1093;-63
2022/11/23 05:04:10;;;;;;;;;;;7.70;99.90;;;;;;5089940;28;1244;-62
2022/11/23 05:06:36;;;;;;;;;;;7.70;99.90;;;;;;5078792;28;1177;-62
2022/11/23 05:09:02;;;;;;;;;;;7.90;99.90;;;;;;5072030;28;1121;-62
2022/11/23 05:11:39;;;;;;;;;;;7.80;99.90;;;;;;5072174;28;1109;-62
2022/11/23 05:14:07;;;;;;;;;;;7.80;99.90;;;;;;5071871;28;1200;-62
2022/11/23 05:16:33;;;;;;;;;;;7.80;99.90;;;;;;5077408;28;1123;-62
2022/11/23 05:18:58;;;;;;;;;;;7.90;99.90;;;;;;5090274;28;1976;-63
2022/11/23 05:21:25;;;;;;;;;;;7.80;99.90;;;;;;5063996;28;1307;-63
2022/11/23 05:23:52;;;;;;;;;;;7.90;99.90;;;;;;5075553;28;1133;-62
2022/11/23 05:26:19;;;;;;;;;;;7.90;99.90;;;;;;5082359;28;1711;-62
2022/11/23 05:28:44;;;;;;;;;;;7.90;99.90;;;;;;5072505;28;1092;-63
2022/11/23 05:31:13;;;;;;;;;;;8.00;99.90;;;;;;5060714;28;1124;-62
2022/11/23 05:33:38;;;;;;;;;;;8.20;99.90;;;;;;5089198;28;1112;-62
2022/11/23 05:36:07;;;;;;;;;;;7.90;99.90;;;;;;5071814;28;1085;-63
2022/11/23 05:38:36;;;;;;;;;;;7.90;99.90;;;;;;5071351;28;1975;-63
2022/11/23 05:41:07;;;;;;;;;;;7.90;99.90;;;;;;5053987;28;1118;-62
2022/11/23 05:43:33;;;;;;;;;;;8.30;99.90;;;;;;5071438;28;1187;-63
2022/11/23 05:46:00;;;;;;;;;;;7.90;99.90;;;;;;5071163;28;1188;-63
2022/11/23 05:48:27;;;;;;;;;;;7.90;99.90;;;;;;5071040;28;1121;-63
2022/11/23 05:50:56;;;;;;;;;;;7.90;99.90;;;;;;5072743;28;1104;-63
2022/11/23 05:53:26;;;;;;;;;;;8.00;99.90;;;;;;5071290;28;1437;-63
2022/11/23 05:56:02;;;;;;;;;;;8.00;99.90;;;;;;5070794;28;1144;-63
2022/11/23 05:58:33;;;;;;;;;;;8.00;99.90;;;;;;5071131;28;1963;-63
2022/11/23 06:01:00;;;;;;;;;;;8.00;99.90;;;;;;5054828;28;1195;-63
2022/11/23 06:03:29;;;;;;;;;;;8.00;99.90;;;;;;5053834;28;1118;-63
2022/11/23 06:05:55;;;;;;;;;;;8.00;99.90;;;;;;5071504;28;1078;-63
2022/11/23 06:08:28;;;;;;;;;;;8.00;99.90;;;;;;5077783;28;1160;-63
2022/11/23 06:10:54;;;;;;;;;;;8.10;99.90;;;;;;5071869;28;1160;-63
2022/11/23 06:13:19;;;;;;;;;;;8.10;99.90;;;;;;5071373;28;1195;-63
2022/11/23 06:15:45;;;;;;;;;;;8.10;99.90;;;;;;5070309;28;1137;-63
2022/11/23 06:18:12;;;;;;;;;;;8.10;99.90;;;;;;5073461;28;1909;-63
2022/11/23 06:20:44;;;;;;;;;;;8.10;99.90;;;;;;5068923;28;1430;-63
2022/11/23 06:23:10;;;;;;;;;;;8.10;99.90;;;;;;5063754;28;1097;-63
2022/11/23 06:25:37;;;;;;;;;;;8.10;99.90;;;;;;5075431;28;1264;-64
2022/11/23 06:28:11;;;;;;;;;;;8.10;99.90;;;;;;5078855;28;1270;-65
2022/11/23 06:30:41;;;;;;;;;;;8.10;99.90;;;;;;5061553;28;1235;-63
2022/11/23 06:33:07;;;;;;;;;;;8.20;99.90;;;;;;5077311;28;1215;-63
2022/11/23 06:35:39;;;;;;;;;;;8.10;99.90;;;;;;5077552;28;1299;-62
2022/11/23 06:38:05;;;;;;;;;;;8.10;99.90;;;;;;5098338;28;1946;-63
2022/11/23 06:40:32;;;;;;;;;;;8.10;99.90;;;;;;5081595;28;1306;-63
2022/11/23 06:42:59;;;;;;;;;;;8.10;99.90;;;;;;5073949;28;1120;-63
2022/11/23 06:45:32;;;;;;;;;;;8.10;99.90;;;;;;5075397;28;1113;-63
2022/11/23 06:48:03;;;;;;;;;;;8.00;99.90;;;;;;5078170;28;1279;-63
2022/11/23 06:50:30;;;;;;;;;;;8.00;99.90;;;;;;5083537;28;1199;-63
2022/11/23 06:52:56;;;;;;;;;;;8.20;99.90;;;;;;5081570;28;1371;-63
2022/11/23 06:55:30;;;;;;;;;;;8.00;99.90;;;;;;5080430;28;1367;-63
2022/11/23 06:57:57;;;;;;;;;;;8.00;99.90;;;;;;5080923;28;1910;-63
2022/11/23 07:00:23;;;;;;;;;;;8.30;99.90;;;;;;5082936;28;1211;-63
2022/11/23 07:02:51;;;;;;;;;;;8.00;99.90;;;;;;5080678;28;1203;-63
2022/11/23 07:05:20;;;;;;;;;;;8.00;99.90;;;;;;5082311;28;1212;-63
2022/11/23 07:07:46;;;;;;;;;;;8.00;99.90;;;;;;5098336;28;1255;-63
2022/11/23 07:10:19;;;;;;;;;;;8.00;99.90;;;;;;5066058;28;1207;-63
2022/11/23 07:12:48;;;;;;;;;;;8.00;99.90;;;;;;5086209;28;1211;-63
2022/11/23 07:15:17;;;;;;;;;;;8.00;99.90;;;;;;5077923;28;1599;-63
2022/11/23 07:17:44;;;;;;;;;;;7.90;99.90;;;;;;5058043;28;1980;-63
2022/11/23 07:20:11;;;;;;;;;;;8.00;99.90;;;;;;5073406;28;1082;-63
2022/11/23 07:22:37;;;;;;;;;;;7.90;99.90;;;;;;5065162;28;1613;-63
2022/11/23 07:25:03;;;;;;;;;;;8.00;99.90;;;;;;5074326;28;1097;-63
2022/11/23 07:27:29;;;;;;;;;;;7.90;99.90;;;;;;5077346;28;1083;-63
2022/11/23 07:29:55;;;;;;;;;;;7.90;99.90;;;;;;5073773;28;1093;-63
2022/11/23 07:32:20;;;;;;;;;;;7.90;99.90;;;;;;5074207;28;1330;-63
2022/11/23 07:34:46;;;;;;;;;;;8.00;99.90;;;;;;5073409;28;1106;-63
2022/11/23 07:37:13;;;;;;;;;;;7.90;99.90;;;;;;5074662;28;1975;-63
2022/11/23 07:39:38;;;;;;;;;;;8.00;99.90;;;;;;5092270;28;1152;-63
2022/11/23 07:42:05;;;;;;;;;;;7.90;99.90;;;;;;5073460;28;1180;-63
2022/11/23 07:44:35;;;;;;;;;;;7.90;99.90;;;;;;5091497;28;1238;-63
2022/11/23 07:47:01;;;;;;;;;;;7.90;99.90;;;;;;5093306;28;1170;-63
2022/11/23 07:49:27;;;;;;;;;;;8.00;99.90;;;;;;5102267;28;1196;-63
2022/11/23 07:51:54;;;;;;;;;;;8.00;99.90;;;;;;5061125;28;1246;-63
2022/11/23 07:54:20;;;;;;;;;;;8.00;99.90;;;;;;5090617;28;1116;-63
2022/11/23 07:56:46;;;;;;;;;;;8.00;99.90;;;;;;5091892;28;1144;-63
2022/11/23 07:59:12;;;;;;;;;;;8.00;99.90;;;;;;5090567;28;1977;-63
2022/11/23 08:01:37;;;;;;;;;;;8.00;99.90;;;;;;5090697;28;1120;-63
2022/11/23 08:04:03;;;;;;;;;;;8.10;99.90;;;;;;5091154;28;1131;-63
2022/11/23 08:06:29;;;;;;;;;;;8.10;99.90;;;;;;5091506;28;1132;-63
2022/11/23 08:08:54;;;;;;;;;;;8.10;99.90;;;;;;5090868;28;1092;-63
2022/11/23 08:11:21;;;;;;;;;;;8.20;99.90;;;;;;5091441;28;1124;-63
2022/11/23 08:13:46;;;;;;;;;;;8.10;99.90;;;;;;5090586;28;1150;-63
2022/11/23 08:16:12;;;;;;;;;;;8.10;99.90;;;;;;5091183;28;1136;-63
2022/11/23 08:18:38;;;;;;;;;;;8.10;99.90;;;;;;5091233;28;1917;-63
2022/11/23 08:21:04;;;;;;;;;;;8.10;99.90;;;;;;5085822;28;1300;-63
2022/11/23 08:23:29;;;;;;;;;;;8.10;99.90;;;;;;5086700;28;1077;-63
2022/11/23 08:25:55;;;;;;;;;;;8.10;99.90;;;;;;5085160;28;3183;-64
2022/11/23 08:28:21;;;;;;;;;;;8.10;99.90;;;;;;5080069;28;3212;-64
2022/11/23 08:30:46;;;;;;;;;;;8.20;99.90;;;;;;5086063;28;1169;-64
2022/11/23 08:33:12;;;;;;;;;;;8.10;99.90;;;;;;5083542;28;1258;-64
2022/11/23 08:35:39;;;;;;;;;;;8.10;99.90;;;;;;5090498;28;1124;-64
2022/11/23 08:38:05;;;;;;;;;;;8.20;99.90;;;;;;5089843;28;1910;-64
2022/11/23 08:40:31;;;;;;;;;;;8.20;99.90;;;;;;5092882;28;1262;-64
2022/11/23 08:42:57;;;;;;;;;;;8.20;99.90;;;;;;5092549;28;1350;-63
2022/11/23 08:45:23;;;;;;;;;;;8.30;99.90;;;;;;5092123;28;1461;-64
2022/11/23 08:47:49;;;;;;;;;;;8.30;99.90;;;;;;5093619;28;1258;-64
2022/11/23 08:50:15;;;;;;;;;;;8.30;99.90;;;;;;5079660;28;1123;-64
2022/11/23 08:52:41;;;;;;;;;;;8.30;99.90;;;;;;5095134;28;1349;-64
2022/11/23 08:55:07;;;;;;;;;;;8.40;99.90;;;;;;5090396;28;1158;-64
2022/11/23 08:57:32;;;;;;;;;;;8.40;99.90;;;;;;5089553;28;1910;-64
2022/11/23 08:59:58;;;;;;;;;;;8.60;99.90;;;;;;5090535;28;1088;-64
2022/11/23 09:02:24;;;;;;;;;;;8.50;99.90;;;;;;5074560;28;1141;-64
2022/11/23 09:04:49;;;;;;;;;;;8.60;99.90;;;;;;5089827;28;1149;-64
2022/11/23 09:07:15;;;;;;;;;;;8.60;99.90;;;;;;5089918;28;1100;-64
2022/11/23 09:09:41;;;;;;;;;;;8.60;99.90;;;;;;5090532;28;1081;-64
2022/11/23 09:12:06;;;;;;;;;;;8.60;99.90;;;;;;5088729;28;1084;-64
2022/11/23 09:14:32;;;;;;;;;;;8.60;99.90;;;;;;5090049;28;1136;-65
2022/11/23 09:16:59;;;;;;;;;;;8.60;99.90;;;;;;5089968;28;1100;-65
2022/11/23 09:19:25;;;;;;;;;;;8.60;99.90;;;;;;5090642;28;1917;-65
2022/11/23 09:21:51;;;;;;;;;;;8.60;99.90;;;;;;5062715;28;1433;-64
2022/11/23 09:24:16;;;;;;;;;;;8.70;99.90;;;;;;5090018;28;1093;-65
2022/11/23 09:26:42;;;;;;;;;;;8.80;99.90;;;;;;5098435;28;1251;-65
2022/11/23 09:29:07;;;;;;;;;;;8.90;99.90;;;;;;5097381;28;1223;-65
2022/11/23 09:31:34;;;;;;;;;;;9.20;99.90;;;;;;5082208;28;1682;-65
2022/11/23 09:34:00;;;;;;;;;;;9.40;99.90;;;;;;5089224;28;1143;-65
2022/11/23 09:36:25;;;;;;;;;;;9.50;99.90;;;;;;5089718;28;1120;-65
2022/11/23 09:38:51;;;;;;;;;;;9.40;99.90;;;;;;5089521;28;1914;-65
2022/11/23 09:41:20;;;;;;;;;;;9.30;99.90;;;;;;5089192;28;1112;-65
2022/11/23 09:43:48;;;;;;;;;;;9.30;99.90;;;;;;5088468;28;1124;-62
2022/11/23 09:46:20;;;;;;;;;;;9.30;99.90;;;;;;5085834;28;1235;-62
2022/11/23 09:48:45;;;;;;;;;;;9.20;99.90;;;;;;5089268;28;1169;-62
2022/11/23 09:51:12;;;;;;;;;;;9.20;99.90;;;;;;5089099;28;1223;-62
2022/11/23 09:53:41;;;;;;;;;;;9.30;99.90;;;;;;5089021;28;1123;-63
2022/11/23 09:56:15;;;;;;;;;;;9.30;99.90;;;;;;5089448;28;1202;-63
2022/11/23 09:58:41;;;;;;;;;;;9.40;99.90;;;;;;5089129;28;1969;-62
2022/11/23 10:01:10;;;;;;;;;;;9.50;99.90;;;;;;5088753;28;1124;-62
2022/11/23 10:03:37;;;;;;;;;;;9.50;99.90;;;;;;5071288;28;1164;-62
2022/11/23 10:06:14;;;;;;;;;;;9.60;99.90;;;;;;5088493;28;1162;-63
2022/11/23 10:08:46;;;;;;;;;;;9.70;99.90;;;;;;5070210;28;1105;-63
2022/11/23 10:11:34;;;;;;;;;;;9.70;99.90;;;;;;5089347;28;1096;-62
2022/11/23 10:14:12;;;;;;;;;;;9.70;99.90;;;;;;5088397;28;1120;-63
2022/11/23 10:16:45;;;;;;;;;;;9.70;99.90;;;;;;5088503;28;1179;-62
2022/11/23 10:19:18;;;;;;;;;;;9.60;99.90;;;;;;5089055;28;1906;-62
2022/11/23 10:21:50;;;;;;;;;;;9.50;99.90;;;;;;5080287;28;1271;-62
2022/11/23 10:24:18;;;;;;;;;;;9.60;99.90;;;;;;5088567;28;1077;-62
2022/11/23 10:26:46;;;;;;;;;;;9.60;99.90;;;;;;5090343;28;1288;-63
2022/11/23 10:29:14;;;;;;;;;;;9.60;99.90;;;;;;5093557;28;1191;-65
2022/11/23 10:31:42;;;;;;;;;;;9.60;99.90;;;;;;5097072;28;1224;-65
2022/11/23 10:34:14;;;;;;;;;;;9.60;99.90;;;;;;5094621;28;3090;-65
2022/11/23 10:36:40;;;;;;;;;;;9.60;99.90;;;;;;5078474;28;1203;-65
2022/11/23 10:39:21;;;;;;;;;;;9.60;99.90;;;;;;5097547;28;1968;-65
2022/11/23 10:41:48;;;;;;;;;;;9.60;99.90;;;;;;5088740;28;1120;-65
2022/11/23 10:44:27;;;;;;;;;;;9.60;99.90;;;;;;5084390;28;1172;-66
2022/11/23 10:46:53;;;;;;;;;;;9.60;99.90;;;;;;5082917;28;1323;-65
2022/11/23 10:49:19;;;;;;;;;;;9.60;99.90;;;;;;5083297;28;1155;-63
2022/11/23 10:51:56;;;;;;;;;;;9.60;99.90;;;;;;5084982;28;1311;-70
2022/11/23 10:54:24;;;;;;;;;;;9.50;99.90;;;;;;5085040;28;1109;-68
2022/11/23 10:56:51;;;;;;;;;;;9.50;99.90;;;;;;5088007;28;1069;-69
2022/11/23 10:59:39;;;;;;;;;;;9.40;99.90;;;;;;5088674;28;1905;-69
2022/11/23 11:02:19;;;;;;;;;;;9.50;99.90;;;;;;5088969;28;1065;-69
2022/11/23 11:04:45;;;;;;;;;;;9.40;99.90;;;;;;5088127;28;1184;-69
2022/11/23 11:07:18;;;;;;;;;;;9.40;99.90;;;;;;5070099;28;1161;-69
2022/11/23 11:09:51;;;;;;;;;;;9.40;99.90;;;;;;5088645;28;1108;-69
2022/11/23 11:12:17;;;;;;;;;;;9.40;99.90;;;;;;5088031;28;1053;-69
2022/11/23 11:15:04;;;;;;;;;;;9.40;99.90;;;;;;5088302;28;1100;-69
2022/11/23 11:17:31;;;;;;;;;;;9.40;99.90;;;;;;5088524;28;1921;-69
2022/11/23 11:19:57;;;;;;;;;;;9.30;99.90;;;;;;5087461;28;1120;-69
2022/11/23 11:22:33;;;;;;;;;;;9.40;99.90;;;;;;5080189;28;1612;-69
2022/11/23 11:24:59;;;;;;;;;;;9.30;99.90;;;;;;5087254;28;1203;-69
2022/11/23 11:27:25;;;;;;;;;;;9.30;99.90;;;;;;5092003;28;1055;-69
2022/11/23 11:29:53;;;;;;;;;;;9.30;99.90;;;;;;5088660;28;1164;-69
2022/11/23 11:32:26;;;;;;;;;;;9.30;99.90;;;;;;5087487;28;1104;-68
2022/11/23 11:35:02;;;;;;;;;;;9.30;99.90;;;;;;5072189;28;1172;-64
2022/11/23 11:37:35;;;;;;;;;;;9.30;99.90;;;;;;5100434;28;1906;-65
2022/11/23 11:40:04;;;;;;;;;;;9.30;99.90;;;;;;5092347;28;1215;-68
2022/11/23 11:42:42;;;;;;;;;;;9.20;99.90;;;;;;5090839;28;1138;-63
2022/11/23 11:45:14;;;;;;;;;;;9.30;99.90;;;;;;5078805;28;1179;-65
2022/11/23 11:47:51;;;;;;;;;;;9.60;99.90;;;;;;5105661;28;1150;-65
2022/11/23 11:50:21;;;;;;;;;;;10.30;99.90;;;;;;5102464;28;3606;-66
2022/11/23 11:52:49;;;;;;;;;;;11.00;99.90;;;;;;5084269;28;2999;-66
2022/11/23 11:55:25;;;;;;;;;;;11.20;99.90;;;;;;5072328;28;1157;-66
2022/11/23 11:57:54;;;;;;;;;;;11.60;99.90;;;;;;5090843;28;1963;-66
2022/11/23 12:00:19;;;;;;;;;;;11.70;99.90;;;;;;5090006;28;1190;-66
2022/11/23 12:03:03;;;;;;;;;;;11.60;99.90;;;;;;5091208;28;1183;-67
2022/11/23 12:05:31;;;;;;;;;;;11.60;99.90;;;;;;5090698;28;1130;-66
2022/11/23 12:08:04;;;;;;;;;;;12.00;99.90;;;;;;5075167;28;1897;-67
2022/11/23 12:10:37;;;;;;;;;;;12.40;99.90;;;;;;5095748;28;1077;-67
2022/11/23 12:13:03;;;;;;;;;;;12.70;99.90;;;;;;5072638;28;1045;-67
2022/11/23 12:15:39;;;;;;;;;;;13.30;99.90;;;;;;5090528;28;1132;-67
2022/11/23 12:18:11;;;;;;;;;;;13.90;99.90;;;;;;5090281;28;1918;-67
2022/11/23 12:20:44;;;;;;;;;;;14.40;99.90;;;;;;5089574;28;1299;-67
2022/11/23 12:23:20;;;;;;;;;;;14.80;99.90;;;;;;5066183;28;1113;-67
2022/11/23 12:25:50;;;;;;;;;;;14.90;99.90;;;;;;5084482;28;3351;-72
2022/11/23 12:28:22;;;;;;;;;;;14.90;99.90;;;;;;5096735;28;3185;-66
2022/11/23 12:30:48;;;;;;;;;;;14.80;99.90;;;;;;5096633;28;3223;-69
2022/11/23 12:33:23;;;;;;;;;;;14.80;99.90;;;;;;5079528;28;1263;-65
2022/11/23 12:35:50;;;;;;;;;;;15.10;99.90;;;;;;5095613;28;1218;-65
2022/11/23 12:38:23;;;;;;;;;;;15.60;99.90;;;;;;5098799;28;1942;-65
2022/11/23 12:40:57;;;;;;;;;;;15.70;99.90;;;;;;5096482;28;1215;-65
2022/11/23 12:43:27;;;;;;;;;;;15.70;99.90;;;;;;5079718;28;1209;-65
2022/11/23 12:45:53;;;;;;;;;;;15.80;99.90;;;;;;5089766;28;1220;-65
2022/11/23 12:48:30;;;;;;;;;;;16.10;99.90;;;;;;5090540;28;1167;-65
2022/11/23 12:50:56;;;;;;;;;;;16.30;99.90;;;;;;5089294;28;1231;-65
2022/11/23 12:53:41;;;;;;;;;;;16.20;99.90;;;;;;5095311;28;1361;-65
2022/11/23 12:56:07;;;;;;;;;;;15.70;99.90;;;;;;5099246;28;1131;-65
2022/11/23 12:58:34;;;;;;;;;;;14.90;99.90;;;;;;5097154;28;1905;-65
2022/11/23 13:01:02;;;;;;;;;;;14.80;99.90;;;;;;5091056;28;1163;-65
2022/11/23 13:03:38;;;;;;;;;;;14.70;99.90;;;;;;5098410;28;1246;-65
2022/11/23 13:06:16;;;;;;;;;;;14.40;99.90;;;;;;5098400;28;1108;-65
2022/11/23 13:08:51;;;;;;;;;;;14.00;99.90;;;;;;5096954;28;1199;-64
2022/11/23 13:11:23;;;;;;;;;;;13.50;99.90;;;;;;5092193;28;1286;-65
2022/11/23 13:14:02;;;;;;;;;;;13.60;99.90;;;;;;5097817;28;1092;-65
2022/11/23 13:16:33;;;;;;;;;;;14.40;99.90;;;;;;5099641;28;1188;-65
2022/11/23 13:19:17;;;;;;;;;;;15.20;99.90;;;;;;5090809;28;1906;-65
2022/11/23 13:21:44;;;;;;;;;;;15.70;99.90;;;;;;5063013;28;1360;-65
2022/11/23 13:24:27;;;;;;;;;;;16.20;99.90;;;;;;5089820;28;1091;-65
2022/11/23 13:27:11;;;;;;;;;;;16.10;99.90;;;;;;5075538;28;1097;-65
2022/11/23 13:29:46;;;;;;;;;;;15.80;99.90;;;;;;5083191;28;1160;-65
2022/11/23 13:32:30;;;;;;;;;;;16.00;99.90;;;;;;5070970;28;1243;-65
2022/11/23 13:34:56;;;;;;;;;;;16.00;99.80;;;;;;5089496;28;1147;-65
2022/11/23 13:37:23;;;;;;;;;;;15.40;99.90;;;;;;5089559;28;1185;-65
2022/11/23 13:39:49;;;;;;;;;;;14.90;99.90;;;;;;5099250;28;1918;-65
2022/11/23 13:42:16;;;;;;;;;;;14.70;99.90;;;;;;5098156;28;1282;-65
2022/11/23 13:44:41;;;;;;;;;;;14.50;99.90;;;;;;5071529;28;1096;-65
2022/11/23 13:47:08;;;;;;;;;;;14.20;99.90;;;;;;5088573;28;1134;-65
2022/11/23 13:49:44;;;;;;;;;;;13.90;99.90;;;;;;5089333;28;1128;-65
2022/11/23 13:52:21;;;;;;;;;;;13.90;99.90;;;;;;5089078;28;1272;-65
2022/11/23 13:54:52;;;;;;;;;;;14.20;99.90;;;;;;5071473;28;1138;-64
2022/11/23 13:57:18;;;;;;;;;;;14.50;99.90;;;;;;5088242;28;1163;-65
2022/11/23 13:59:44;;;;;;;;;;;14.70;99.90;;;;;;5090386;28;1909;-65
2022/11/23 14:02:09;;;;;;;;;;;15.00;99.90;;;;;;5098006;28;1305;-65
2022/11/23 14:04:37;;;;;;;;;;;15.40;99.80;;;;;;5092443;28;1234;-65
2022/11/23 14:07:05;;;;;;;;;;;15.70;98.80;;;;;;5093124;28;1166;-65
2022/11/23 14:09:35;;;;;;;;;;;15.80;98.50;;;;;;5091437;28;1190;-65
2022/11/23 14:12:02;;;;;;;;;;;15.90;98.40;;;;;;5093298;28;1152;-65
2022/11/23 14:14:29;;;;;;;;;;;15.80;97.80;;;;;;5096360;28;1243;-65
2022/11/23 14:17:18;;;;;;;;;;;15.60;98.10;;;;;;5089085;28;1169;-65
2022/11/23 14:19:53;;;;;;;;;;;15.40;98.40;;;;;;5088334;28;1909;-65
2022/11/23 14:22:37;;;;;;;;;;;15.10;98.50;;;;;;5071785;28;1323;-65
2022/11/23 14:25:06;;;;;;;;;;;15.00;98.60;;;;;;5070455;28;1064;-65
2022/11/23 14:27:39;;;;;;;;;;;14.60;98.50;;;;;;5092745;28;1068;-65
2022/11/23 14:30:17;;;;;;;;;;;14.10;99.10;;;;;;5087518;28;1192;-65
2022/11/23 14:33:04;;;;;;;;;;;13.50;99.90;;;;;;5088709;28;1163;-65
2022/11/23 14:35:37;;;;;;;;;;;13.00;99.90;;;;;;5088330;28;1157;-65
2022/11/23 14:38:18;;;;;;;;;;;12.50;99.90;;;;;;5078878;28;1930;-65
2022/11/23 14:40:53;;;;;;;;;;;12.00;99.90;;;;;;5088745;28;1105;-64
2022/11/23 14:43:19;;;;;;;;;;;11.70;99.90;;;;;;5066658;28;3349;-65
2022/11/23 14:45:46;;;;;;;;;;;11.30;99.90;;;;;;5075855;28;3192;-65
2022/11/23 14:48:21;;;;;;;;;;;11.20;99.90;;;;;;5071320;28;3112;-64
2022/11/23 14:50:55;;;;;;;;;;;10.80;99.90;;;;;;5070452;28;3225;-64